createdAt,value
2023-10-12T00:01:58.257Z,18.11
2023-10-12T00:04:00.621Z,18.14
2023-10-12T00:06:03.162Z,18.14
2023-10-12T00:08:11.264Z,18.17
2023-10-12T00:10:13.772Z,18.07
2023-10-12T00:12:16.653Z,18.04
2023-10-12T00:14:18.356Z,17.95
2023-10-12T00:16:20.456Z,17.98
2023-10-12T00:18:23.451Z,17.98
2023-10-12T00:20:25.766Z,18.05
2023-10-12T00:22:27.318Z,18.02
2023-10-12T00:24:28.973Z,18.03
2023-10-12T00:26:32.579Z,18.03
2023-10-12T00:28:40.265Z,17.98
2023-10-12T00:30:42.947Z,17.90
2023-10-12T00:32:45.029Z,17.93
2023-10-12T00:34:49.948Z,17.98
2023-10-12T00:36:53.831Z,18.04
2023-10-12T00:39:00.515Z,18.12
2023-10-12T00:41:05.969Z,18.11
2023-10-12T00:43:07.884Z,18.07
2023-10-12T00:45:20.395Z,18.07
2023-10-12T00:47:40.961Z,18.08
2023-10-12T00:49:49.925Z,17.99
2023-10-12T00:51:53.658Z,18.08
2023-10-12T00:53:58.333Z,18.06
2023-10-12T00:56:02.874Z,17.96
2023-10-12T00:58:06.415Z,18.08
2023-10-12T01:00:16.560Z,18.01
2023-10-12T01:02:22.310Z,18.08
2023-10-12T01:04:24.188Z,17.98
2023-10-12T01:06:28.427Z,18.05
2023-10-12T01:08:31.559Z,17.99
2023-10-12T01:10:34.233Z,18.03
2023-10-12T01:12:35.868Z,18.06
2023-10-12T01:14:40.910Z,18.01
2023-10-12T01:16:51.207Z,18.04
2023-10-12T01:19:06.754Z,18.02
2023-10-12T01:21:12.569Z,18.07
2023-10-12T01:23:14.351Z,18.06
2023-10-12T01:25:30.110Z,17.90
2023-10-12T01:27:31.761Z,18.00
2023-10-12T01:29:33.419Z,18.06
2023-10-12T01:31:37.807Z,18.05
2023-10-12T01:33:42.786Z,18.08
2023-10-12T01:35:50.997Z,18.06
2023-10-12T01:38:02.362Z,18.03
2023-10-12T01:40:04.401Z,18.05
2023-10-12T01:42:08.197Z,18.15
2023-10-12T01:44:13.812Z,18.16
2023-10-12T01:46:22.632Z,18.15
2023-10-12T01:48:24.402Z,18.09
2023-10-12T01:50:26.220Z,18.14
2023-10-12T01:52:28.077Z,18.07
2023-10-12T01:54:30.724Z,18.01
2023-10-12T01:56:35.898Z,17.95
2023-10-12T01:58:39.759Z,17.78
2023-10-12T02:00:42.930Z,17.75
2023-10-12T02:02:51.390Z,17.73
2023-10-12T02:04:53.407Z,17.71
2023-10-12T02:06:57.356Z,17.70
2023-10-12T02:09:11.747Z,17.71
2023-10-12T02:11:17.806Z,17.69
2023-10-12T02:13:22.781Z,17.63
2023-10-12T02:15:33.081Z,17.62
2023-10-12T02:17:37.036Z,17.71
2023-10-12T02:19:45.286Z,17.59
2023-10-12T02:21:48.055Z,17.62
2023-10-12T02:23:59.046Z,17.67
2023-10-12T02:26:00.697Z,17.71
2023-10-12T02:28:04.915Z,17.68
2023-10-12T02:30:08.666Z,17.68
2023-10-12T02:32:24.017Z,17.70
2023-10-12T02:34:28.388Z,17.71
2023-10-12T02:36:30.423Z,17.66
2023-10-12T02:38:32.487Z,17.54
2023-10-12T02:40:34.985Z,17.60
2023-10-12T02:42:40.089Z,17.67
2023-10-12T02:44:48.920Z,17.70
2023-10-12T02:47:22.636Z,17.71
2023-10-12T02:49:25.306Z,17.73
2023-10-12T02:51:26.960Z,17.54
2023-10-12T02:53:31.333Z,17.61
2023-10-12T02:55:41.780Z,17.66
2023-10-12T02:57:54.418Z,17.65
2023-10-12T02:59:58.801Z,17.64
2023-10-12T03:02:19.585Z,17.64
2023-10-12T03:04:21.684Z,17.67
2023-10-12T03:06:26.591Z,17.64
2023-10-12T03:08:47.978Z,17.60
2023-10-12T03:11:00.908Z,17.60
2023-10-12T03:13:06.213Z,17.60
2023-10-12T03:15:14.788Z,17.62
2023-10-12T03:17:17.482Z,17.63
2023-10-12T03:19:29.594Z,17.55
2023-10-12T03:21:34.552Z,17.54
2023-10-12T03:23:36.341Z,17.53
2023-10-12T03:25:47.729Z,17.44
2023-10-12T03:27:53.425Z,17.44
2023-10-12T03:30:07.658Z,17.42
2023-10-12T03:32:09.342Z,17.41
2023-10-12T03:34:29.780Z,17.43
2023-10-12T03:36:34.203Z,17.41
2023-10-12T03:38:36.385Z,17.37
2023-10-12T03:40:51.743Z,17.34
2023-10-12T03:42:56.013Z,17.31
2023-10-12T03:45:14.764Z,17.30
2023-10-12T03:47:24.789Z,17.28
2023-10-12T03:49:45.240Z,17.03
2023-10-12T03:51:47.435Z,17.14
2023-10-12T03:53:57.590Z,17.25
2023-10-12T03:56:02.214Z,17.16
2023-10-12T03:58:07.886Z,16.98
2023-10-12T04:00:10.472Z,17.07
2023-10-12T04:02:16.412Z,17.03
2023-10-12T04:07:01.441Z,17.03
2023-10-12T04:09:15.644Z,17.11
2023-10-12T04:11:20.108Z,17.05
2023-10-12T04:13:27.649Z,17.05
2023-10-12T04:15:36.199Z,17.02
2023-10-12T04:17:49.044Z,17.05
2023-10-12T04:20:16.058Z,16.99
2023-10-12T04:22:27.342Z,16.96
2023-10-12T04:24:29.003Z,16.85
2023-10-12T04:26:36.455Z,16.85
2023-10-12T04:28:38.069Z,16.87
2023-10-12T04:30:51.708Z,16.86
2023-10-12T04:33:12.525Z,16.85
2023-10-12T04:35:22.278Z,16.89
2023-10-12T04:37:28.723Z,16.87
2023-10-12T04:39:37.832Z,16.79
2023-10-12T04:41:39.902Z,16.81
2023-10-12T04:43:41.431Z,16.80
2023-10-12T04:46:02.331Z,16.72
2023-10-12T04:48:19.169Z,16.79
2023-10-12T04:50:44.568Z,16.80
2023-10-12T04:53:06.717Z,16.84
2023-10-12T04:55:18.892Z,16.76
2023-10-12T04:57:27.425Z,16.75
2023-10-12T04:59:50.598Z,16.75
2023-10-12T05:02:10.212Z,16.71
2023-10-12T05:04:27.788Z,16.64
2023-10-12T05:06:32.354Z,16.70
2023-10-12T05:08:35.605Z,16.70
2023-10-12T05:10:37.249Z,16.78
2023-10-12T05:12:38.907Z,16.74
2023-10-12T05:14:40.510Z,16.66
2023-10-12T05:16:46.649Z,16.62
2023-10-12T05:18:49.306Z,16.52
2023-10-12T05:20:51.858Z,16.56
2023-10-12T05:22:54.053Z,16.54
2023-10-12T05:24:55.799Z,16.48
2023-10-12T05:27:10.342Z,16.42
2023-10-12T05:29:27.144Z,16.43
2023-10-12T05:31:29.498Z,16.40
2023-10-12T05:33:34.335Z,16.39
2023-10-12T05:35:53.708Z,16.42
2023-10-12T05:37:57.437Z,16.52
2023-10-12T05:40:01.065Z,16.47
2023-10-12T05:42:07.330Z,16.48
2023-10-12T05:44:15.283Z,16.49
2023-10-12T05:46:16.948Z,16.50
2023-10-12T05:48:20.438Z,16.49
2023-10-12T05:50:26.156Z,16.49
2023-10-12T05:52:28.086Z,16.42
2023-10-12T05:54:29.918Z,16.42
2023-10-12T05:56:34.072Z,16.45
2023-10-12T05:58:35.718Z,16.42
2023-10-12T06:00:37.643Z,16.34
2023-10-12T06:02:39.714Z,16.31
2023-10-12T06:04:43.103Z,16.31
2023-10-12T06:06:44.898Z,16.36
2023-10-12T06:08:46.489Z,16.42
2023-10-12T06:10:48.127Z,16.40
2023-10-12T06:12:50.132Z,16.45
2023-10-12T06:14:54.755Z,16.49
2023-10-12T06:16:57.619Z,16.50
2023-10-12T06:19:01.862Z,16.36
2023-10-12T06:21:10.117Z,16.33
2023-10-12T06:23:14.998Z,16.35
2023-10-12T06:25:19.554Z,16.32
2023-10-12T06:27:21.249Z,16.35
2023-10-12T06:29:27.124Z,16.35
2023-10-12T06:31:30.842Z,16.34
2023-10-12T06:33:32.821Z,16.30
2023-10-12T06:35:36.655Z,16.23
2023-10-12T06:37:57.392Z,16.27
2023-10-12T06:40:17.668Z,16.37
2023-10-12T06:42:28.008Z,16.33
2023-10-12T06:44:30.107Z,16.38
2023-10-12T06:46:45.018Z,16.38
2023-10-12T06:48:48.310Z,16.41
2023-10-12T06:50:54.759Z,16.40
2023-10-12T06:52:58.563Z,16.45
2023-10-12T06:55:01.086Z,16.40
2023-10-12T06:57:18.969Z,16.37
2023-10-12T06:59:21.007Z,16.40
2023-10-12T07:01:28.287Z,16.37
2023-10-12T07:03:29.812Z,16.36
2023-10-12T07:05:34.650Z,16.40
2023-10-12T07:07:42.495Z,16.39
2023-10-12T07:09:45.793Z,16.40
2023-10-12T07:11:47.488Z,16.45
2023-10-12T07:13:50.820Z,16.42
2023-10-12T07:15:52.454Z,16.53
2023-10-12T07:17:55.231Z,16.58
2023-10-12T07:19:56.874Z,16.62
2023-10-12T07:22:02.461Z,16.69
2023-10-12T07:24:09.282Z,16.72
2023-10-12T07:26:13.872Z,16.82
2023-10-12T07:28:33.498Z,16.78
2023-10-12T07:30:37.300Z,16.95
2023-10-12T07:32:57.244Z,16.95
2023-10-12T07:35:10.558Z,17.07
2023-10-12T07:37:17.574Z,17.03
2023-10-12T07:39:23.924Z,17.10
2023-10-12T07:41:34.585Z,17.20
2023-10-12T07:43:39.754Z,17.36
2023-10-12T07:45:49.215Z,17.40
2023-10-12T07:48:00.611Z,17.42
2023-10-12T07:50:12.480Z,17.51
2023-10-12T07:52:17.084Z,17.60
2023-10-12T07:54:38.798Z,17.67
2023-10-12T07:56:41.546Z,17.76
2023-10-12T07:58:59.621Z,17.74
2023-10-12T08:01:19.884Z,17.62
2023-10-12T08:03:26.294Z,17.59
2023-10-12T08:05:48.248Z,17.54
2023-10-12T08:08:00.450Z,17.63
2023-10-12T08:10:10.972Z,17.56
2023-10-12T08:12:27.226Z,17.61
2023-10-12T08:14:29.256Z,17.62
2023-10-12T08:16:38.267Z,17.66
2023-10-12T08:19:02.817Z,17.69
2023-10-12T08:21:11.852Z,17.72
2023-10-12T08:23:18.960Z,17.75
2023-10-12T08:25:28.551Z,17.78
2023-10-12T08:27:40.814Z,17.80
2023-10-12T08:29:42.386Z,17.84
2023-10-12T08:31:45.221Z,17.78
2023-10-12T08:33:49.996Z,17.84
2023-10-12T08:36:09.926Z,17.79
2023-10-12T08:38:13.194Z,17.77
2023-10-12T08:40:21.143Z,17.81
2023-10-12T08:42:23.729Z,17.83
2023-10-12T08:44:25.658Z,17.79
2023-10-12T08:46:43.016Z,17.89
2023-10-12T08:48:54.590Z,17.88
2023-10-12T08:51:10.262Z,17.85
2023-10-12T08:53:14.755Z,17.85
2023-10-12T08:55:20.291Z,17.80
2023-10-12T08:57:36.837Z,17.78
2023-10-12T08:59:43.884Z,17.45
2023-10-12T09:01:45.929Z,17.49
2023-10-12T09:03:47.675Z,17.41
2023-10-12T09:06:01.659Z,17.46
2023-10-12T09:08:14.677Z,17.32
2023-10-12T09:10:37.636Z,17.21
2023-10-12T09:12:41.423Z,17.28
2023-10-12T09:14:44.639Z,17.27
2023-10-12T09:16:56.925Z,17.22
2023-10-12T09:18:59.025Z,17.30
2023-10-12T09:21:18.099Z,17.19
2023-10-12T09:23:23.114Z,17.22
2023-10-12T09:25:43.474Z,17.20
2023-10-12T09:27:50.823Z,17.28
2023-10-12T09:29:59.305Z,17.28
2023-10-12T09:32:19.619Z,17.35
2023-10-12T09:34:43.706Z,17.20
2023-10-12T09:36:51.001Z,17.12
2023-10-12T09:38:58.426Z,17.17
2023-10-12T09:41:00.718Z,17.23
2023-10-12T09:43:08.162Z,17.21
2023-10-12T09:45:29.477Z,17.12
2023-10-12T09:47:45.304Z,17.17
2023-10-12T09:49:55.334Z,17.12
2023-10-12T09:52:01.157Z,17.15
2023-10-12T09:54:17.489Z,17.23
2023-10-12T09:56:25.467Z,17.24
2023-10-12T09:58:27.312Z,17.29
2023-10-12T10:00:29.417Z,17.21
2023-10-12T10:02:35.748Z,17.17
2023-10-12T10:04:42.329Z,17.14
2023-10-12T10:06:52.734Z,17.16
2023-10-12T10:09:24.329Z,17.25
2023-10-12T10:11:27.851Z,17.26
2023-10-12T10:13:50.649Z,17.40
2023-10-12T10:16:00.231Z,17.41
2023-10-12T10:18:02.406Z,17.39
2023-10-12T10:20:15.379Z,17.44
2023-10-12T10:22:17.643Z,17.41
2023-10-12T10:24:25.989Z,17.34
2023-10-12T10:26:35.653Z,17.41
2023-10-12T10:28:37.505Z,17.51
2023-10-12T10:30:42.194Z,17.61
2023-10-12T10:32:46.554Z,17.65
2023-10-12T10:34:48.227Z,17.59
2023-10-12T10:36:53.389Z,17.55
2023-10-12T10:38:55.862Z,17.46
2023-10-12T10:41:06.696Z,17.58
2023-10-12T10:43:15.775Z,17.53
2023-10-12T10:45:17.434Z,17.52
2023-10-12T10:47:22.416Z,17.39
2023-10-12T10:49:34.318Z,17.43
2023-10-12T10:51:41.862Z,17.40
2023-10-12T10:53:43.540Z,17.43
2023-10-12T10:55:48.197Z,17.49
2023-10-12T10:57:51.350Z,17.59
2023-10-12T10:59:53.597Z,17.72
2023-10-12T11:01:57.457Z,17.67
2023-10-12T11:04:01.684Z,17.57
2023-10-12T11:06:03.590Z,17.50
2023-10-12T11:08:21.222Z,17.52
2023-10-12T11:10:49.184Z,17.50
2023-10-12T11:12:51.138Z,17.55
2023-10-12T11:15:01.380Z,17.51
2023-10-12T11:17:06.481Z,17.58
2023-10-12T11:19:10.363Z,17.46
2023-10-12T11:21:12.396Z,17.39
2023-10-12T11:23:16.754Z,17.58
2023-10-12T11:25:19.943Z,17.37
2023-10-12T11:27:32.304Z,17.51
2023-10-12T11:29:51.097Z,17.29
2023-10-12T11:32:09.754Z,17.02
2023-10-12T11:34:13.958Z,16.90
2023-10-12T11:36:25.096Z,16.95
2023-10-12T11:38:28.035Z,16.93
2023-10-12T11:40:32.715Z,16.84
2023-10-12T11:42:35.434Z,16.84
2023-10-12T11:44:38.149Z,16.88
2023-10-12T11:46:44.792Z,16.71
2023-10-12T11:49:01.950Z,16.79
2023-10-12T11:51:14.181Z,16.87
2023-10-12T11:53:16.548Z,16.84
2023-10-12T11:55:20.547Z,16.77
2023-10-12T11:57:22.594Z,16.77
2023-10-12T11:59:28.143Z,16.74
2023-10-12T12:01:34.389Z,16.67
2023-10-12T12:03:41.039Z,16.73
2023-10-12T12:05:44.876Z,16.66
2023-10-12T12:07:52.195Z,16.64
2023-10-12T12:10:01.528Z,16.46
2023-10-12T12:12:08.724Z,16.52
2023-10-12T12:14:10.511Z,16.50
2023-10-12T12:16:12.176Z,16.54
2023-10-12T12:18:19.760Z,16.54
2023-10-12T12:20:24.341Z,16.52
2023-10-12T12:22:26.574Z,16.49
2023-10-12T12:24:30.433Z,16.54
2023-10-12T12:26:34.825Z,16.55
2023-10-12T12:28:44.497Z,16.58
2023-10-12T12:30:59.777Z,16.56
2023-10-12T12:33:03.899Z,16.65
2023-10-12T12:35:07.514Z,16.75
2023-10-12T12:37:10.037Z,16.65
2023-10-12T12:39:12.901Z,16.65
2023-10-12T12:41:23.442Z,16.68
2023-10-12T12:43:25.104Z,16.71
2023-10-12T12:45:26.785Z,16.69
2023-10-12T12:47:30.666Z,16.78
2023-10-12T12:49:32.268Z,16.84
2023-10-12T12:51:33.844Z,16.90
2023-10-12T12:53:35.554Z,16.83
2023-10-12T12:55:39.594Z,16.88
2023-10-12T12:57:43.266Z,16.65
2023-10-12T12:59:45.054Z,16.78
2023-10-12T13:01:47.393Z,16.84
2023-10-12T13:03:49.162Z,17.00
2023-10-12T13:05:50.785Z,17.00
2023-10-12T13:07:52.368Z,16.93
2023-10-12T13:09:54.861Z,16.83
2023-10-12T13:11:57.609Z,16.92
2023-10-12T13:13:59.121Z,17.03
2023-10-12T13:16:05.103Z,17.14
2023-10-12T13:18:08.721Z,17.08
2023-10-12T13:20:20.048Z,17.18
2023-10-12T13:22:21.726Z,17.15
2023-10-12T13:24:23.258Z,17.21
2023-10-12T13:26:25.261Z,17.28
2023-10-12T13:28:28.287Z,17.25
2023-10-12T13:30:31.914Z,17.28
2023-10-12T13:32:33.543Z,17.21
2023-10-12T13:34:35.284Z,17.26
2023-10-12T13:36:40.289Z,17.29
2023-10-12T13:38:43.005Z,17.24
2023-10-12T13:40:47.487Z,17.33
2023-10-12T13:42:49.189Z,17.39
2023-10-12T13:44:51.665Z,17.57
2023-10-12T13:46:53.653Z,17.70
2023-10-12T13:48:55.395Z,17.81
2023-10-12T13:51:21.220Z,17.81
2023-10-12T13:53:24.268Z,17.86
2023-10-12T13:55:27.704Z,17.99
2023-10-12T13:57:29.549Z,18.07
2023-10-12T13:59:31.185Z,18.16
2023-10-12T14:01:37.774Z,18.19
2023-10-12T14:03:39.970Z,18.22
2023-10-12T14:05:41.815Z,18.06
2023-10-12T14:07:43.357Z,17.83
2023-10-12T14:09:45.049Z,17.79
2023-10-12T14:11:52.504Z,17.85
2023-10-12T14:13:54.098Z,17.83
2023-10-12T14:15:55.723Z,17.65
2023-10-12T14:17:57.854Z,17.56
2023-10-12T14:19:59.718Z,17.41
2023-10-12T14:22:04.792Z,17.29
2023-10-12T14:24:08.774Z,17.28
2023-10-12T14:26:11.930Z,17.13
2023-10-12T14:28:17.529Z,17.13
2023-10-12T14:30:26.249Z,17.13
2023-10-12T14:32:27.976Z,17.10
2023-10-12T14:34:30.512Z,17.09
2023-10-12T14:36:32.153Z,17.08
2023-10-12T14:38:35.761Z,16.92
2023-10-12T14:40:41.677Z,16.83
2023-10-12T14:42:43.795Z,16.91
2023-10-12T14:44:47.089Z,16.91
2023-10-12T14:46:56.128Z,16.93
2023-10-12T14:48:59.570Z,16.86
2023-10-12T14:51:08.491Z,16.81
2023-10-12T14:53:16.906Z,16.73
2023-10-12T14:55:18.753Z,16.69
2023-10-12T14:57:20.911Z,16.65
2023-10-12T14:59:22.995Z,16.52
2023-10-12T15:01:29.684Z,16.58
2023-10-12T15:03:35.689Z,16.55
2023-10-12T15:05:38.590Z,16.40
2023-10-12T15:07:40.168Z,16.37
2023-10-12T15:09:49.452Z,16.27
2023-10-12T15:11:51.317Z,16.28
2023-10-12T15:13:54.827Z,16.26
2023-10-12T15:15:59.681Z,16.28
2023-10-12T15:18:01.477Z,16.37
2023-10-12T15:20:06.842Z,16.41
2023-10-12T15:22:08.846Z,16.35
2023-10-12T15:24:11.106Z,16.31
2023-10-12T15:26:14.816Z,16.20
2023-10-12T15:28:17.514Z,16.19
2023-10-12T15:30:19.158Z,16.19
2023-10-12T15:32:21.034Z,16.16
2023-10-12T15:34:22.782Z,16.19
2023-10-12T15:36:24.766Z,16.26
2023-10-12T15:38:34.055Z,16.18
2023-10-12T15:40:37.499Z,16.16
2023-10-12T15:42:41.035Z,16.13
2023-10-12T15:44:42.597Z,16.21
2023-10-12T15:46:46.252Z,16.19
2023-10-12T15:48:48.070Z,16.17
2023-10-12T15:50:51.405Z,16.18
2023-10-12T15:52:54.201Z,16.11
2023-10-12T15:54:55.860Z,16.08
2023-10-12T15:56:57.411Z,16.09
2023-10-12T15:59:02.565Z,15.81
2023-10-12T16:01:05.832Z,15.80
2023-10-12T16:03:08.421Z,15.83
2023-10-12T16:05:10.120Z,15.82
2023-10-12T16:07:18.163Z,15.87
2023-10-12T16:09:25.560Z,15.91
2023-10-12T16:11:27.255Z,15.97
2023-10-12T16:13:28.890Z,15.98
2023-10-12T16:15:30.591Z,15.99
2023-10-12T16:17:32.212Z,15.98
2023-10-12T16:19:33.983Z,15.89
2023-10-12T16:21:37.206Z,15.98
2023-10-12T16:23:38.830Z,15.77
2023-10-12T16:25:42.643Z,15.83
2023-10-12T16:27:49.894Z,15.88
2023-10-12T16:30:00.022Z,15.88
2023-10-12T16:32:02.469Z,15.90
2023-10-12T16:34:07.243Z,15.96
2023-10-12T16:36:10.030Z,15.96
2023-10-12T16:38:12.795Z,15.96
2023-10-12T16:40:16.672Z,15.93
2023-10-12T16:42:18.320Z,15.98
2023-10-12T16:44:19.845Z,15.99
2023-10-12T16:46:22.743Z,15.90
2023-10-12T16:48:30.118Z,15.94
2023-10-12T16:50:31.727Z,15.91
2023-10-12T16:52:33.734Z,15.92
2023-10-12T16:54:37.314Z,15.91
2023-10-12T16:56:41.858Z,15.85
2023-10-12T16:58:43.658Z,15.78
2023-10-12T17:00:45.654Z,15.76
2023-10-12T17:02:48.106Z,15.77
2023-10-12T17:04:53.326Z,15.71
2023-10-12T17:06:55.504Z,15.78
2023-10-12T17:08:57.060Z,15.72
2023-10-12T17:11:01.184Z,15.79
2023-10-12T17:13:03.422Z,15.67
2023-10-12T17:15:07.051Z,15.67
2023-10-12T17:17:08.755Z,15.77
2023-10-12T17:19:11.905Z,15.90
2023-10-12T17:21:14.331Z,15.88
2023-10-12T17:23:17.025Z,15.92
2023-10-12T17:25:19.080Z,15.83
2023-10-12T17:27:20.756Z,15.91
2023-10-12T17:29:22.714Z,15.93
2023-10-12T17:31:29.893Z,15.94
2023-10-12T17:33:31.652Z,15.93
2023-10-12T17:35:34.355Z,15.93
2023-10-12T17:37:36.099Z,15.93
2023-10-12T17:39:39.678Z,15.97
2023-10-12T17:41:41.270Z,16.03
2023-10-12T17:43:42.851Z,16.04
2023-10-12T17:45:45.307Z,16.03
2023-10-12T17:47:47.492Z,16.02
2023-10-12T17:49:51.155Z,15.99
2023-10-12T17:51:55.492Z,16.08
2023-10-12T17:53:57.976Z,16.01
2023-10-12T17:55:59.475Z,15.96
2023-10-12T17:58:01.031Z,15.88
2023-10-12T18:00:02.587Z,15.88
2023-10-12T18:02:08.806Z,15.94
2023-10-12T18:04:10.582Z,15.95
2023-10-12T18:06:13.074Z,15.93
2023-10-12T18:08:15.270Z,16.06
2023-10-12T18:10:17.322Z,16.05
2023-10-12T18:12:19.356Z,16.01
2023-10-12T18:14:21.022Z,16.01
2023-10-12T18:16:23.280Z,16.04
2023-10-12T18:18:25.471Z,16.02
2023-10-12T18:20:27.085Z,16.04
2023-10-12T18:22:29.067Z,15.99
2023-10-12T18:24:30.681Z,16.02
2023-10-12T18:26:32.881Z,15.99
2023-10-12T18:28:34.702Z,16.00
2023-10-12T18:30:38.373Z,16.02
2023-10-12T18:32:42.086Z,15.98
2023-10-12T18:34:46.991Z,16.01
2023-10-12T18:36:58.121Z,15.96
2023-10-12T18:39:08.137Z,16.04
2023-10-12T18:41:16.359Z,16.09
2023-10-12T18:43:17.972Z,16.02
2023-10-12T18:45:20.753Z,16.05
2023-10-12T18:47:28.180Z,16.02
2023-10-12T18:49:29.963Z,16.08
2023-10-12T18:51:31.549Z,15.99
2023-10-12T18:53:33.649Z,16.03
2023-10-12T18:55:35.365Z,15.97
2023-10-12T18:57:42.692Z,15.96
2023-10-12T18:59:44.576Z,16.00
2023-10-12T19:01:46.322Z,16.00
2023-10-12T19:03:48.000Z,16.01
2023-10-12T19:05:50.205Z,16.00
2023-10-12T19:07:51.718Z,16.08
2023-10-12T19:09:53.804Z,16.02
2023-10-12T19:11:55.594Z,16.03
2023-10-12T19:13:57.219Z,16.05
2023-10-12T19:15:59.002Z,16.01
2023-10-12T19:18:03.073Z,16.00
2023-10-12T19:20:12.135Z,16.00
2023-10-12T19:22:13.995Z,16.05
2023-10-12T19:24:15.491Z,15.97
2023-10-12T19:26:17.061Z,16.02
2023-10-12T19:28:20.019Z,15.98
2023-10-12T19:30:21.997Z,15.94
2023-10-12T19:32:25.670Z,16.01
2023-10-12T19:34:29.472Z,16.01
2023-10-12T19:36:31.638Z,16.10
2023-10-12T19:38:34.362Z,16.13
2023-10-12T19:40:36.089Z,16.11
2023-10-12T19:42:38.811Z,16.13
2023-10-12T19:44:40.532Z,16.14
2023-10-12T19:46:42.306Z,16.12
2023-10-12T19:48:45.966Z,16.08
2023-10-12T19:50:49.700Z,16.06
2023-10-12T19:52:51.668Z,16.06
2023-10-12T19:54:53.755Z,16.11
2023-10-12T19:56:56.257Z,16.19
2023-10-12T19:58:59.451Z,16.08
2023-10-12T20:01:11.956Z,16.10
2023-10-12T20:03:17.038Z,16.16
2023-10-12T20:05:18.812Z,16.13
2023-10-12T20:07:20.575Z,16.12
2023-10-12T20:09:29.077Z,16.13
2023-10-12T20:11:30.730Z,16.08
2023-10-12T20:13:38.819Z,16.13
2023-10-12T20:15:40.436Z,16.16
2023-10-12T20:17:43.565Z,16.14
2023-10-12T20:19:47.239Z,16.12
2023-10-12T20:21:49.059Z,16.17
2023-10-12T20:23:50.732Z,16.16
2023-10-12T20:25:55.415Z,16.21
2023-10-12T20:27:57.009Z,16.17
2023-10-12T20:29:58.554Z,16.16
2023-10-12T20:32:00.388Z,16.17
2023-10-12T20:34:02.015Z,16.10
2023-10-12T20:36:05.828Z,16.14
2023-10-12T20:38:12.630Z,16.17
2023-10-12T20:40:15.205Z,16.20
2023-10-12T20:42:16.759Z,16.23
2023-10-12T20:44:20.781Z,16.23
2023-10-12T20:46:23.317Z,16.24
2023-10-12T20:48:29.016Z,16.31
2023-10-12T20:50:30.772Z,16.32
2023-10-12T20:52:34.366Z,16.31
2023-10-12T20:54:42.600Z,16.25
2023-10-12T20:56:44.250Z,16.26
2023-10-12T20:58:46.344Z,16.31
2023-10-12T21:00:58.597Z,16.31
2023-10-12T21:03:06.250Z,16.29
2023-10-12T21:05:09.612Z,16.33
2023-10-12T21:07:12.043Z,16.31
2023-10-12T21:09:14.350Z,16.37
2023-10-12T21:11:24.933Z,16.39
2023-10-12T21:13:31.626Z,16.40
2023-10-12T21:15:33.205Z,16.34
2023-10-12T21:17:34.962Z,16.34
2023-10-12T21:19:46.202Z,16.28
2023-10-12T21:21:51.168Z,16.30
2023-10-12T21:23:53.378Z,16.35
2023-10-12T21:26:03.994Z,16.39
2023-10-12T21:28:11.591Z,16.36
2023-10-12T21:30:17.423Z,16.32
2023-10-12T21:32:28.079Z,16.33
2023-10-12T21:34:33.618Z,16.39
2023-10-12T21:36:43.738Z,16.41
2023-10-12T21:38:46.372Z,16.35
2023-10-12T21:40:48.173Z,16.31
2023-10-12T21:42:50.220Z,16.35
2023-10-12T21:44:56.144Z,16.33
2023-10-12T21:47:03.724Z,16.19
2023-10-12T21:49:09.888Z,16.30
2023-10-12T21:51:11.442Z,16.37
2023-10-12T21:53:14.121Z,16.37
2023-10-12T21:55:16.001Z,16.34
2023-10-12T21:57:17.737Z,16.27
2023-10-12T21:59:21.226Z,16.23
2023-10-12T22:01:36.445Z,16.30
2023-10-12T22:03:39.719Z,16.34
2023-10-12T22:05:46.078Z,16.33
2023-10-12T22:07:47.556Z,16.33
2023-10-12T22:10:03.861Z,16.33
2023-10-12T22:12:06.059Z,16.30
2023-10-12T22:14:17.073Z,16.34
2023-10-12T22:16:32.178Z,16.31
2023-10-12T22:18:34.161Z,16.26
2023-10-12T22:20:35.737Z,16.18
2023-10-12T22:22:37.342Z,16.17
2023-10-12T22:24:39.194Z,16.16
2023-10-12T22:26:43.659Z,16.12
2023-10-12T22:28:45.377Z,16.10
2023-10-12T22:30:51.791Z,16.14
2023-10-12T22:32:53.806Z,16.17
2023-10-12T22:34:55.424Z,16.25
2023-10-12T22:36:57.064Z,16.38
2023-10-12T22:38:58.899Z,16.38
2023-10-12T22:41:02.182Z,16.32
2023-10-12T22:43:04.027Z,16.28
2023-10-12T22:45:06.993Z,16.30
2023-10-12T22:47:10.029Z,16.29
2023-10-12T22:49:12.972Z,16.34
2023-10-12T22:51:14.727Z,16.36
2023-10-12T22:53:16.321Z,16.44
2023-10-12T22:55:18.006Z,16.38
2023-10-12T22:57:19.560Z,16.34
2023-10-12T22:59:21.542Z,16.39
2023-10-12T23:01:23.373Z,16.37
2023-10-12T23:03:25.086Z,16.42
2023-10-12T23:05:26.670Z,16.37
2023-10-12T23:07:28.261Z,16.43
2023-10-12T23:09:30.648Z,16.39
2023-10-12T23:11:35.117Z,16.38
2023-10-12T23:13:36.996Z,16.29
2023-10-12T23:15:44.524Z,16.33
2023-10-12T23:17:47.022Z,16.34
2023-10-12T23:19:49.544Z,16.41
2023-10-12T23:21:53.989Z,16.45
2023-10-12T23:23:55.535Z,16.44
2023-10-12T23:26:01.795Z,16.50
2023-10-12T23:28:06.918Z,16.52
2023-10-12T23:30:18.546Z,16.54
2023-10-12T23:32:21.011Z,16.48
2023-10-12T23:34:22.553Z,16.36
2023-10-12T23:36:29.008Z,16.39
2023-10-12T23:38:37.447Z,16.45
2023-10-12T23:40:48.693Z,16.49
2023-10-12T23:42:50.724Z,16.46
2023-10-12T23:44:54.962Z,16.43
2023-10-12T23:46:58.577Z,16.43
2023-10-12T23:49:06.620Z,16.44
2023-10-12T23:51:14.188Z,16.45
2023-10-12T23:53:19.473Z,16.48
2023-10-12T23:55:31.074Z,16.42
2023-10-12T23:57:35.236Z,16.52
2023-10-12T23:59:37.376Z,16.52
